createdAt,value
2017-10-17T00:01:13.817Z,14.74
2017-10-17T00:03:52.372Z,14.98
2017-10-17T00:06:20.664Z,14.74
2017-10-17T00:08:48.931Z,16.04
2017-10-17T00:11:17.187Z,15.42
2017-10-17T00:13:45.487Z,15.80
2017-10-17T00:16:13.764Z,15.00
2017-10-17T00:18:42.092Z,16.14
2017-10-17T00:21:22.347Z,13.96
2017-10-17T00:23:50.639Z,16.32
2017-10-17T00:26:18.896Z,15.02
2017-10-17T00:28:47.162Z,14.96
2017-10-17T00:31:14.693Z,16.38
2017-10-17T00:33:42.979Z,15.10
2017-10-17T00:36:15.023Z,15.92
2017-10-17T00:39:00.092Z,16.22
2017-10-17T00:41:28.351Z,14.96
2017-10-17T00:43:56.659Z,14.50
2017-10-17T00:46:24.919Z,15.98
2017-10-17T00:48:57.179Z,16.42
2017-10-17T00:51:24.691Z,16.20
2017-10-17T00:54:13.995Z,15.36
2017-10-17T00:56:42.303Z,15.44
2017-10-17T00:59:27.369Z,17.30
2017-10-17T01:01:54.896Z,15.14
2017-10-17T01:04:23.192Z,16.74
2017-10-17T01:06:51.457Z,16.78
2017-10-17T01:09:25.763Z,15.92
2017-10-17T01:11:54.064Z,15.88
2017-10-17T01:14:22.328Z,16.76
2017-10-17T01:16:50.591Z,15.58
2017-10-17T01:19:18.880Z,15.96
2017-10-17T01:21:47.147Z,14.98
2017-10-17T01:24:15.447Z,15.58
2017-10-17T01:26:43.708Z,16.20
2017-10-17T01:29:14.708Z,15.54
2017-10-17T01:31:43.007Z,14.92
2017-10-17T01:34:11.257Z,16.38
2017-10-17T01:36:41.245Z,16.28
2017-10-17T01:39:09.532Z,16.16
2017-10-17T01:41:39.067Z,14.60
2017-10-17T01:44:11.006Z,17.14
2017-10-17T01:46:40.770Z,15.78
2017-10-17T01:49:11.962Z,15.62
2017-10-17T01:51:46.826Z,15.84
2017-10-17T01:54:16.899Z,16.80
2017-10-17T01:56:45.159Z,16.90
2017-10-17T01:59:17.841Z,15.62
2017-10-17T02:01:47.110Z,15.36
2017-10-17T02:04:15.381Z,15.92
2017-10-17T02:06:43.671Z,18.08
2017-10-17T02:09:11.939Z,15.42
2017-10-17T02:11:40.218Z,15.44
2017-10-17T02:14:09.387Z,17.82
2017-10-17T02:16:39.027Z,16.54
2017-10-17T02:19:14.782Z,16.64
2017-10-17T02:22:05.644Z,18.78
2017-10-17T02:24:38.833Z,17.02
2017-10-17T02:27:07.611Z,15.62
2017-10-17T02:29:38.944Z,15.86
2017-10-17T02:32:30.496Z,17.00
2017-10-17T02:35:00.420Z,15.90
2017-10-17T02:37:28.687Z,15.22
2017-10-17T02:39:56.939Z,15.96
2017-10-17T02:42:25.224Z,16.56
2017-10-17T02:44:53.478Z,18.02
2017-10-17T02:47:21.760Z,15.88
2017-10-17T02:49:50.711Z,16.52
2017-10-17T02:52:34.836Z,16.42
2017-10-17T02:55:04.089Z,15.14
2017-10-17T02:57:37.623Z,16.82
2017-10-17T03:00:05.890Z,17.34
2017-10-17T03:02:42.491Z,17.72
2017-10-17T03:05:12.298Z,16.76
2017-10-17T03:07:56.854Z,16.56
2017-10-17T03:10:25.113Z,17.52
2017-10-17T03:12:53.366Z,15.78
2017-10-17T03:15:24.355Z,17.68
2017-10-17T03:17:52.658Z,16.82
2017-10-17T03:20:22.886Z,17.56
2017-10-17T03:22:51.176Z,16.30
2017-10-17T03:25:19.429Z,16.36
2017-10-17T03:27:48.658Z,16.86
2017-10-17T03:30:16.928Z,17.02
2017-10-17T03:32:44.419Z,16.62
2017-10-17T03:35:15.101Z,17.76
2017-10-17T03:37:51.290Z,16.02
2017-10-17T03:40:43.176Z,16.48
2017-10-17T03:43:43.379Z,16.10
2017-10-17T03:46:11.670Z,16.78
2017-10-17T03:48:40.799Z,15.78
2017-10-17T03:51:09.902Z,15.42
2017-10-17T03:53:47.898Z,16.22
2017-10-17T03:56:42.826Z,15.80
2017-10-17T03:59:17.895Z,16.18
2017-10-17T04:01:46.343Z,15.30
2017-10-17T04:04:35.387Z,14.86
2017-10-17T04:10:19.269Z,16.40
2017-10-17T04:12:51.240Z,16.10
2017-10-17T04:15:19.530Z,15.96
2017-10-17T04:17:51.246Z,15.60
2017-10-17T04:20:27.362Z,15.16
2017-10-17T04:23:02.288Z,15.32
2017-10-17T04:35:18.614Z,15.26
2017-10-17T04:37:47.570Z,16.40
2017-10-17T04:40:28.540Z,16.26
2017-10-17T04:43:19.586Z,15.02
2017-10-17T04:45:54.468Z,17.30
2017-10-17T04:48:48.262Z,18.20
2017-10-17T04:51:29.403Z,16.98
2017-10-17T04:54:30.247Z,16.62
2017-10-17T04:57:01.120Z,17.52
2017-10-17T04:59:41.083Z,17.06
2017-10-17T05:02:15.743Z,16.62
2017-10-17T05:06:53.011Z,18.16
2017-10-17T05:09:27.882Z,17.58
2017-10-17T05:11:56.195Z,16.62
2017-10-17T05:14:43.954Z,17.22
2017-10-17T05:17:33.762Z,18.42
2017-10-17T05:20:09.322Z,18.12
2017-10-17T05:22:44.166Z,18.24
2017-10-17T05:25:16.022Z,15.60
2017-10-17T05:28:04.250Z,18.96
2017-10-17T05:30:42.163Z,17.22
2017-10-17T05:33:19.280Z,18.38
2017-10-17T05:35:47.536Z,18.30
2017-10-17T05:38:20.982Z,17.36
2017-10-17T05:40:49.243Z,18.32
2017-10-17T05:43:29.535Z,18.42
2017-10-17T05:45:57.795Z,19.62
2017-10-17T05:48:28.948Z,17.86
2017-10-17T05:51:05.147Z,17.18
2017-10-17T05:53:34.699Z,19.18
2017-10-17T05:56:04.610Z,18.82
2017-10-17T05:58:32.904Z,20.10
2017-10-17T06:01:06.847Z,18.20
2017-10-17T06:03:35.146Z,19.24
2017-10-17T06:06:11.811Z,18.98
2017-10-17T06:08:40.487Z,18.58
2017-10-17T06:11:09.186Z,19.12
2017-10-17T06:13:38.511Z,19.10
2017-10-17T06:16:06.811Z,18.96
2017-10-17T06:18:35.064Z,19.52
2017-10-17T06:21:05.276Z,18.92
2017-10-17T06:23:34.296Z,20.66
2017-10-17T06:26:08.578Z,19.48
2017-10-17T06:28:39.891Z,20.28
2017-10-17T06:31:08.619Z,19.44
2017-10-17T06:33:36.875Z,19.72
2017-10-17T06:36:05.287Z,19.08
2017-10-17T06:38:34.307Z,20.86
2017-10-17T06:41:01.796Z,21.32
2017-10-17T06:43:31.984Z,20.30
2017-10-17T06:46:00.282Z,21.22
2017-10-17T06:48:35.139Z,20.66
2017-10-17T06:51:04.106Z,21.32
2017-10-17T06:53:51.489Z,20.96
2017-10-17T06:56:19.784Z,19.82
2017-10-17T07:01:40.867Z,19.54
2017-10-17T07:04:09.631Z,22.64
2017-10-17T07:06:38.505Z,22.32
2017-10-17T07:09:13.733Z,22.42
2017-10-17T07:11:41.978Z,22.98
2017-10-17T07:14:26.664Z,20.50
2017-10-17T07:16:54.919Z,21.70
2017-10-17T07:19:31.091Z,21.12
2017-10-17T07:21:59.346Z,21.72
2017-10-17T07:24:27.599Z,22.38
2017-10-17T07:26:55.967Z,24.52
2017-10-17T07:29:23.446Z,24.14
2017-10-17T07:31:51.715Z,20.28
2017-10-17T07:34:20.014Z,21.82
2017-10-17T07:36:48.296Z,20.90
2017-10-17T07:39:16.591Z,21.20
2017-10-17T07:41:44.843Z,20.72
2017-10-17T07:44:13.095Z,22.00
2017-10-17T07:46:41.395Z,22.98
2017-10-17T07:49:09.656Z,21.12
2017-10-17T07:51:39.122Z,23.94
2017-10-17T07:54:07.809Z,21.86
2017-10-17T07:56:36.071Z,23.56
2017-10-17T07:59:05.379Z,22.74
2017-10-17T08:01:34.546Z,23.18
2017-10-17T08:04:02.818Z,22.08
2017-10-17T08:06:31.079Z,23.46
2017-10-17T08:08:59.371Z,22.30
2017-10-17T08:11:27.631Z,24.80
2017-10-17T08:13:55.936Z,23.42
2017-10-17T08:16:27.199Z,21.84
2017-10-17T08:18:55.484Z,20.90
2017-10-17T08:21:23.747Z,21.76
2017-10-17T08:23:52.030Z,20.52
2017-10-17T08:26:20.287Z,20.88
2017-10-17T08:28:48.589Z,22.08
2017-10-17T08:31:24.021Z,20.90
2017-10-17T08:33:52.307Z,20.68
2017-10-17T08:36:21.490Z,16.50
2017-10-17T08:38:49.792Z,16.66
2017-10-17T08:41:18.052Z,14.38
2017-10-17T08:43:46.314Z,14.74
2017-10-17T08:46:20.428Z,18.86
2017-10-17T08:48:48.711Z,14.26
2017-10-17T08:51:16.966Z,17.66
2017-10-17T08:53:45.262Z,15.62
2017-10-17T08:56:13.522Z,16.16
2017-10-17T08:58:41.782Z,17.12
2017-10-17T09:01:10.076Z,16.10
2017-10-17T09:03:38.343Z,17.96
2017-10-17T09:06:06.651Z,17.48
2017-10-17T09:08:34.902Z,16.44
2017-10-17T09:11:04.219Z,18.62
2017-10-17T09:13:32.502Z,16.82
2017-10-17T09:16:03.324Z,16.80
2017-10-17T09:18:31.615Z,16.88
2017-10-17T09:20:59.902Z,17.02
2017-10-17T09:23:28.201Z,17.32
2017-10-17T09:25:56.472Z,18.58
2017-10-17T09:28:24.763Z,17.74
2017-10-17T09:31:00.296Z,18.02
2017-10-17T09:33:28.570Z,17.86
2017-10-17T09:35:56.876Z,18.60
2017-10-17T09:38:25.145Z,17.94
2017-10-17T09:40:53.398Z,16.84
2017-10-17T09:43:28.026Z,18.38
2017-10-17T09:45:56.295Z,16.50
2017-10-17T09:48:35.958Z,16.84
2017-10-17T09:51:05.391Z,19.04
2017-10-17T09:53:54.359Z,18.14
2017-10-17T09:56:22.651Z,18.64
2017-10-17T09:58:50.939Z,20.18
2017-10-17T10:01:19.194Z,16.52
2017-10-17T10:03:50.500Z,16.40
2017-10-17T10:06:18.767Z,18.84
2017-10-17T10:08:49.060Z,19.78
2017-10-17T10:11:17.311Z,17.92
2017-10-17T10:13:46.608Z,17.80
2017-10-17T10:16:32.336Z,16.26
2017-10-17T10:19:00.614Z,18.12
2017-10-17T10:21:53.774Z,18.12
2017-10-17T10:24:22.063Z,16.90
2017-10-17T10:27:00.695Z,18.50
2017-10-17T10:29:28.984Z,17.64
2017-10-17T10:31:59.163Z,18.44
2017-10-17T10:34:27.447Z,18.86
2017-10-17T10:37:01.567Z,17.24
2017-10-17T10:39:29.872Z,18.10
2017-10-17T10:41:58.139Z,17.96
2017-10-17T10:44:26.407Z,19.18
2017-10-17T10:46:54.703Z,19.28
2017-10-17T10:49:22.984Z,18.06
2017-10-17T10:51:51.290Z,20.38
2017-10-17T10:54:22.804Z,18.36
2017-10-17T10:56:50.339Z,18.98
2017-10-17T10:59:35.406Z,17.90
2017-10-17T11:02:03.699Z,17.80
2017-10-17T11:04:31.955Z,18.06
2017-10-17T11:07:00.234Z,18.46
2017-10-17T11:09:28.484Z,17.62
2017-10-17T11:11:56.767Z,19.26
2017-10-17T11:14:35.097Z,19.20
2017-10-17T11:17:04.310Z,17.64
2017-10-17T11:19:54.422Z,19.02
2017-10-17T11:22:22.677Z,17.56
2017-10-17T11:24:51.000Z,17.42
2017-10-17T11:27:19.254Z,17.32
2017-10-17T11:29:50.583Z,17.82
2017-10-17T11:32:18.850Z,16.74
2017-10-17T11:34:50.655Z,16.74
2017-10-17T11:37:18.955Z,18.94
2017-10-17T11:39:50.731Z,18.46
2017-10-17T11:42:37.949Z,18.88
2017-10-17T11:45:06.208Z,18.86
2017-10-17T11:47:35.771Z,19.72
2017-10-17T11:50:05.456Z,18.68
2017-10-17T11:52:33.711Z,17.66
2017-10-17T11:55:01.998Z,17.16
2017-10-17T11:57:34.490Z,18.36
2017-10-17T12:00:03.085Z,18.56
2017-10-17T12:02:31.370Z,19.90
2017-10-17T12:04:59.622Z,20.24
2017-10-17T12:07:27.906Z,19.88
2017-10-17T12:09:56.199Z,19.34
2017-10-17T12:12:24.460Z,19.28
2017-10-17T12:14:52.719Z,19.74
2017-10-17T12:17:24.143Z,18.44
2017-10-17T12:19:52.404Z,20.24
2017-10-17T12:22:20.658Z,20.28
2017-10-17T12:24:48.939Z,19.38
2017-10-17T12:27:17.230Z,20.74
2017-10-17T12:29:45.491Z,19.90
2017-10-17T12:32:13.747Z,20.00
2017-10-17T12:34:51.927Z,19.94
2017-10-17T12:37:20.186Z,20.18
2017-10-17T12:39:48.439Z,18.32
2017-10-17T12:42:16.723Z,20.02
2017-10-17T12:45:06.487Z,20.76
2017-10-17T12:47:35.454Z,20.00
2017-10-17T12:50:08.595Z,19.88
2017-10-17T12:52:36.855Z,21.88
2017-10-17T12:55:09.435Z,16.98
2017-10-17T12:57:36.928Z,19.26
2017-10-17T13:00:11.303Z,19.36
2017-10-17T13:02:40.139Z,20.52
2017-10-17T13:05:08.391Z,18.58
2017-10-17T13:07:36.679Z,18.06
2017-10-17T13:10:24.838Z,20.38
2017-10-17T13:12:53.118Z,19.26
2017-10-17T13:15:21.369Z,21.36
2017-10-17T13:17:49.628Z,19.64
2017-10-17T13:20:34.560Z,19.10
2017-10-17T13:23:02.854Z,20.20
2017-10-17T13:25:31.106Z,19.90
2017-10-17T13:27:59.410Z,20.98
2017-10-17T13:30:28.628Z,22.12
2017-10-17T13:32:56.879Z,22.60
2017-10-17T13:35:25.168Z,20.84
2017-10-17T13:37:53.418Z,19.92
2017-10-17T13:40:21.674Z,20.54
2017-10-17T13:42:52.943Z,20.34
2017-10-17T13:45:21.195Z,18.12
2017-10-17T13:47:49.503Z,23.04
2017-10-17T13:50:17.755Z,20.76
2017-10-17T13:52:55.955Z,22.74
2017-10-17T13:55:24.243Z,21.62
2017-10-17T13:57:54.402Z,21.28
2017-10-17T14:00:22.683Z,20.84
2017-10-17T14:02:50.942Z,20.46
2017-10-17T14:05:19.247Z,19.90
2017-10-17T14:07:47.499Z,20.12
2017-10-17T14:10:15.766Z,21.30
2017-10-17T14:12:44.051Z,21.84
2017-10-17T14:15:12.299Z,21.12
2017-10-17T14:17:40.582Z,20.00
2017-10-17T14:20:08.830Z,20.06
2017-10-17T14:22:37.078Z,19.14
2017-10-17T14:25:05.368Z,20.10
2017-10-17T14:27:34.474Z,20.50
2017-10-17T14:30:03.457Z,21.62
2017-10-17T14:32:31.712Z,19.30
2017-10-17T14:34:59.964Z,21.06
2017-10-17T14:37:28.255Z,21.14
2017-10-17T14:39:56.505Z,18.66
2017-10-17T14:42:24.762Z,21.48
2017-10-17T14:44:53.060Z,19.64
2017-10-17T14:47:21.314Z,20.92
2017-10-17T14:49:49.565Z,19.50
2017-10-17T14:52:17.855Z,19.40
2017-10-17T14:54:46.097Z,18.96
2017-10-17T14:57:14.351Z,20.60
2017-10-17T14:59:42.632Z,19.70
2017-10-17T15:02:10.915Z,19.72
2017-10-17T15:04:40.355Z,24.84
2017-10-17T15:07:09.286Z,21.60
2017-10-17T15:09:37.575Z,19.66
2017-10-17T15:12:05.859Z,20.38
2017-10-17T15:14:35.479Z,21.04
2017-10-17T15:17:05.671Z,18.56
2017-10-17T15:19:35.033Z,20.04
2017-10-17T15:22:04.139Z,18.66
2017-10-17T15:24:32.399Z,19.00
2017-10-17T15:27:03.833Z,20.70
2017-10-17T15:29:32.080Z,20.46
2017-10-17T15:32:00.345Z,20.76
2017-10-17T15:34:28.627Z,18.80
2017-10-17T15:36:59.824Z,18.64
2017-10-17T15:39:28.114Z,20.44
2017-10-17T15:41:56.358Z,18.06
2017-10-17T15:44:24.620Z,19.04
2017-10-17T15:46:52.907Z,19.52
2017-10-17T15:49:21.167Z,19.06
2017-10-17T15:51:49.444Z,18.94
2017-10-17T15:54:17.699Z,20.04
2017-10-17T15:56:45.978Z,21.24
2017-10-17T15:59:14.283Z,19.50
2017-10-17T16:01:42.536Z,19.12
2017-10-17T16:04:10.799Z,18.32
2017-10-17T16:06:40.282Z,18.56
2017-10-17T16:09:08.907Z,18.52
2017-10-17T16:11:37.162Z,18.60
2017-10-17T16:14:06.286Z,17.90
2017-10-17T16:16:35.833Z,18.92
2017-10-17T16:19:05.199Z,21.68
2017-10-17T16:21:34.421Z,19.38
2017-10-17T16:24:03.350Z,20.50
2017-10-17T16:26:35.462Z,20.44
2017-10-17T16:29:03.712Z,20.88
2017-10-17T16:31:35.414Z,18.62
2017-10-17T16:34:04.484Z,19.92
2017-10-17T16:36:33.573Z,20.54
2017-10-17T16:39:01.858Z,19.74
2017-10-17T16:41:30.166Z,21.14
2017-10-17T16:43:58.418Z,18.60
2017-10-17T16:46:27.716Z,20.56
2017-10-17T16:48:56.002Z,18.30
2017-10-17T16:51:24.276Z,17.70
2017-10-17T16:53:52.575Z,18.40
2017-10-17T16:56:20.834Z,20.26
2017-10-17T16:58:49.094Z,21.26
2017-10-17T17:01:17.383Z,21.66
2017-10-17T17:03:45.630Z,19.34
2017-10-17T17:06:13.910Z,17.92
2017-10-17T17:08:42.158Z,18.14
2017-10-17T17:11:10.458Z,19.14
2017-10-17T17:13:39.414Z,18.66
2017-10-17T17:16:08.699Z,17.68
2017-10-17T17:18:36.994Z,18.60
2017-10-17T17:21:05.372Z,18.14
2017-10-17T17:23:34.251Z,18.18
2017-10-17T17:26:02.543Z,20.10
2017-10-17T17:28:30.880Z,19.74
2017-10-17T17:30:59.158Z,17.38
2017-10-17T17:33:27.464Z,18.80
2017-10-17T17:35:55.721Z,18.86
2017-10-17T17:38:23.223Z,18.34
2017-10-17T17:40:50.745Z,18.18
2017-10-17T17:43:19.030Z,20.50
2017-10-17T17:45:47.279Z,18.76
2017-10-17T17:48:15.558Z,19.76
2017-10-17T17:50:43.047Z,19.22
2017-10-17T17:53:11.339Z,18.52
2017-10-17T17:55:39.902Z,18.34
2017-10-17T17:58:08.906Z,18.74
2017-10-17T18:00:37.988Z,20.28
2017-10-17T18:03:06.248Z,17.58
2017-10-17T18:05:35.199Z,17.10
2017-10-17T18:08:04.292Z,17.24
2017-10-17T18:10:32.549Z,18.96
2017-10-17T18:13:00.996Z,19.40
2017-10-17T18:15:29.245Z,17.66
2017-10-17T18:17:57.553Z,17.20
2017-10-17T18:20:25.846Z,18.80
2017-10-17T18:22:54.102Z,18.04
2017-10-17T18:25:22.387Z,16.94
2017-10-17T18:27:50.670Z,16.52
2017-10-17T18:30:18.208Z,16.46
2017-10-17T18:32:46.458Z,15.64
2017-10-17T18:35:14.706Z,16.00
2017-10-17T18:37:42.972Z,14.28
2017-10-17T18:40:11.231Z,15.00
2017-10-17T18:42:39.946Z,13.44
2017-10-17T18:45:08.779Z,13.32
2017-10-17T18:47:37.034Z,13.70
2017-10-17T18:50:05.319Z,12.78
2017-10-17T18:52:34.577Z,13.72
2017-10-17T18:55:02.859Z,16.48
2017-10-17T18:57:31.179Z,14.22
2017-10-17T18:59:59.469Z,14.00
2017-10-17T19:02:27.746Z,12.78
2017-10-17T19:04:56.015Z,14.30
2017-10-17T19:07:40.603Z,13.70
2017-10-17T19:10:09.297Z,13.92
2017-10-17T19:12:38.047Z,13.96
2017-10-17T19:15:06.318Z,13.88
2017-10-17T19:17:33.856Z,13.96
2017-10-17T19:20:02.120Z,14.76
2017-10-17T19:22:30.379Z,14.10
2017-10-17T19:24:58.667Z,13.02
2017-10-17T19:27:27.942Z,13.92
2017-10-17T19:29:56.209Z,13.30
2017-10-17T19:32:24.503Z,13.10
2017-10-17T19:35:04.922Z,12.52
2017-10-17T19:37:34.338Z,12.42
2017-10-17T19:40:03.436Z,12.74
2017-10-17T19:42:31.695Z,12.14
2017-10-17T19:44:59.979Z,13.60
2017-10-17T19:47:28.235Z,12.00
2017-10-17T19:49:56.515Z,11.64
2017-10-17T19:52:24.789Z,12.82
2017-10-17T19:54:55.003Z,14.54
2017-10-17T19:57:24.278Z,13.06
2017-10-17T19:59:52.571Z,12.64
2017-10-17T20:02:20.831Z,12.44
2017-10-17T20:04:49.118Z,14.32
2017-10-17T20:07:17.371Z,13.30
2017-10-17T20:09:45.655Z,13.84
2017-10-17T20:12:13.938Z,12.80
2017-10-17T20:14:57.455Z,14.30
2017-10-17T20:17:25.751Z,12.56
2017-10-17T20:19:57.256Z,12.30
2017-10-17T20:22:25.551Z,14.20
2017-10-17T20:24:57.576Z,13.74
2017-10-17T20:27:25.874Z,13.42
2017-10-17T20:30:00.157Z,13.08
2017-10-17T20:32:28.451Z,12.76
2017-10-17T20:34:57.686Z,11.76
2017-10-17T20:37:25.943Z,13.92
2017-10-17T20:40:08.978Z,14.84
2017-10-17T20:42:37.235Z,14.72
2017-10-17T20:45:10.834Z,14.44
2017-10-17T20:47:39.587Z,12.32
2017-10-17T20:50:18.511Z,13.14
2017-10-17T20:52:46.767Z,11.88
2017-10-17T20:55:16.008Z,13.02
2017-10-17T20:57:44.289Z,14.24
2017-10-17T21:00:12.541Z,12.90
2017-10-17T21:02:55.040Z,13.02
2017-10-17T21:05:23.330Z,12.16
2017-10-17T21:07:59.306Z,11.50
2017-10-17T21:10:27.558Z,12.42
2017-10-17T21:12:55.818Z,12.08
2017-10-17T21:15:24.106Z,12.16
2017-10-17T21:17:53.286Z,11.04
2017-10-17T21:20:21.571Z,12.24
2017-10-17T21:22:50.758Z,12.28
2017-10-17T21:25:19.051Z,12.44
2017-10-17T21:27:46.551Z,11.50
2017-10-17T21:30:14.816Z,11.34
2017-10-17T21:32:43.094Z,12.04
2017-10-17T21:35:11.358Z,13.12
2017-10-17T21:37:42.919Z,12.12
2017-10-17T21:40:10.419Z,11.88
2017-10-17T21:42:39.301Z,11.30
2017-10-17T21:45:07.996Z,11.84
2017-10-17T21:47:37.226Z,11.06
2017-10-17T21:50:05.487Z,11.82
2017-10-17T21:52:38.658Z,11.24
2017-10-17T21:55:06.971Z,12.32
2017-10-17T21:57:48.632Z,13.34
2017-10-17T22:00:16.925Z,12.34
2017-10-17T22:02:45.193Z,11.56
2017-10-17T22:05:14.397Z,12.84
2017-10-17T22:07:42.708Z,12.10
2017-10-17T22:10:10.993Z,11.00
2017-10-17T22:12:40.510Z,12.76
2017-10-17T22:15:09.537Z,10.44
2017-10-17T22:17:37.071Z,10.90
2017-10-17T22:20:05.324Z,11.48
2017-10-17T22:22:34.517Z,10.54
2017-10-17T22:25:03.606Z,11.10
2017-10-17T22:27:31.895Z,11.46
2017-10-17T22:30:00.144Z,11.18
2017-10-17T22:32:28.404Z,11.00
2017-10-17T22:34:56.694Z,12.56
2017-10-17T22:37:24.984Z,10.78
2017-10-17T22:39:53.231Z,11.52
2017-10-17T22:42:21.491Z,10.32
2017-10-17T22:44:49.788Z,12.64
2017-10-17T22:47:18.034Z,11.32
2017-10-17T22:49:46.299Z,11.28
2017-10-17T22:52:14.583Z,10.54
2017-10-17T22:54:42.834Z,10.84
2017-10-17T22:57:14.980Z,10.22
2017-10-17T22:59:43.243Z,10.32
2017-10-17T23:02:11.543Z,11.36
2017-10-17T23:04:39.790Z,11.34
2017-10-17T23:07:08.823Z,11.14
2017-10-17T23:09:37.087Z,10.64
2017-10-17T23:12:05.382Z,10.92
2017-10-17T23:14:34.731Z,10.42
2017-10-17T23:17:16.747Z,11.40
2017-10-17T23:19:56.879Z,12.90
2017-10-17T23:22:35.940Z,10.38
2017-10-17T23:25:05.482Z,9.62
2017-10-17T23:27:33.756Z,11.64
2017-10-17T23:30:02.043Z,10.44
2017-10-17T23:32:29.570Z,10.56
2017-10-17T23:34:57.818Z,11.44
2017-10-17T23:37:26.078Z,11.12
2017-10-17T23:39:54.358Z,10.56
2017-10-17T23:42:22.610Z,9.72
2017-10-17T23:44:50.902Z,10.60
2017-10-17T23:47:18.415Z,12.32
2017-10-17T23:49:46.719Z,10.24
2017-10-17T23:52:14.967Z,11.80
2017-10-17T23:54:43.222Z,10.40
2017-10-17T23:57:11.507Z,11.66
2017-10-17T23:59:39.787Z,13.02
